createdAt,value
2023-03-08T00:02:07.573Z,12.55
2023-03-08T00:07:29.962Z,15.50
2023-03-08T00:12:52.138Z,12.58
2023-03-08T00:18:14.402Z,12.80
2023-03-08T00:23:36.566Z,15.78
2023-03-08T00:29:00.477Z,15.78
2023-03-08T00:34:23.606Z,15.05
2023-03-08T00:39:47.231Z,13.68
2023-03-08T00:45:09.415Z,16.55
2023-03-08T00:50:31.816Z,16.93
2023-03-08T00:56:05.477Z,13.72
2023-03-08T01:01:31.213Z,16.67
2023-03-08T01:06:53.719Z,12.20
2023-03-08T01:12:16.824Z,15.10
2023-03-08T01:17:39.175Z,11.95
2023-03-08T01:23:01.494Z,17.23
2023-03-08T01:28:23.791Z,11.68
2023-03-08T01:33:46.094Z,10.88
2023-03-08T01:39:09.319Z,13.00
2023-03-08T01:44:36.300Z,14.30
2023-03-08T01:49:59.324Z,12.33
2023-03-08T01:55:25.785Z,12.78
2023-03-08T02:00:49.744Z,14.28
2023-03-08T02:06:12.741Z,11.73
2023-03-08T02:11:37.831Z,12.95
2023-03-08T02:17:00.374Z,13.28
2023-03-08T02:22:33.296Z,15.60
2023-03-08T02:27:55.947Z,9.98
2023-03-08T02:33:18.983Z,10.45
2023-03-08T02:38:42.027Z,13.62
2023-03-08T02:44:04.662Z,7.78
2023-03-08T02:49:28.491Z,18.52
2023-03-08T02:54:50.704Z,7.80
2023-03-08T03:00:14.043Z,10.98
2023-03-08T03:05:36.446Z,7.10
2023-03-08T03:10:58.804Z,9.70
2023-03-08T03:16:24.322Z,8.13
2023-03-08T03:21:46.916Z,7.90
2023-03-08T03:27:09.720Z,8.80
2023-03-08T03:32:32.111Z,12.18
2023-03-08T03:37:54.836Z,10.28
2023-03-08T03:43:17.035Z,6.20
2023-03-08T03:48:40.933Z,10.78
2023-03-08T03:54:06.416Z,6.70
2023-03-08T03:59:28.359Z,8.75
2023-03-08T04:04:51.286Z,6.33
2023-03-08T04:10:14.849Z,9.70
2023-03-08T04:15:38.253Z,7.85
2023-03-08T04:21:01.157Z,7.30
2023-03-08T04:26:24.616Z,8.20
2023-03-08T04:31:48.361Z,8.40
2023-03-08T04:37:10.804Z,9.28
2023-03-08T04:42:33.110Z,9.05
2023-03-08T04:47:55.303Z,6.03
2023-03-08T04:53:17.843Z,4.83
2023-03-08T04:58:42.468Z,8.95
2023-03-08T05:04:06.019Z,9.08
2023-03-08T05:09:28.238Z,4.37
2023-03-08T05:14:50.414Z,6.08
2023-03-08T05:20:13.543Z,6.12
2023-03-08T05:25:35.923Z,5.15
2023-03-08T05:30:59.945Z,7.67
2023-03-08T05:36:24.258Z,7.65
2023-03-08T05:41:48.885Z,8.03
2023-03-08T05:47:11.372Z,6.83
2023-03-08T05:52:34.797Z,5.70
2023-03-08T05:57:57.827Z,7.85
2023-03-08T06:03:20.464Z,8.63
2023-03-08T06:08:42.881Z,8.80
2023-03-08T06:14:05.121Z,6.45
2023-03-08T06:19:28.060Z,8.48
2023-03-08T06:24:50.447Z,8.93
2023-03-08T06:30:13.003Z,10.32
2023-03-08T06:35:35.381Z,8.18
2023-03-08T06:40:57.852Z,7.28
2023-03-08T06:46:26.827Z,10.18
2023-03-08T06:51:49.167Z,5.43
2023-03-08T06:57:11.575Z,14.38
2023-03-08T07:02:34.168Z,15.75
2023-03-08T07:07:56.360Z,9.83
2023-03-08T07:13:18.601Z,10.98
2023-03-08T07:18:41.141Z,9.95
2023-03-08T07:24:04.952Z,12.70
2023-03-08T07:29:27.691Z,14.35
2023-03-08T07:34:50.252Z,14.03
2023-03-08T07:40:13.287Z,9.38
2023-03-08T07:45:35.825Z,14.25
2023-03-08T07:50:59.521Z,13.45
2023-03-08T07:56:22.126Z,12.30
2023-03-08T08:01:44.543Z,14.30
2023-03-08T08:07:08.580Z,11.45
2023-03-08T08:12:31.388Z,10.25
2023-03-08T08:17:53.586Z,10.25
2023-03-08T08:23:17.639Z,9.15
2023-03-08T08:28:40.114Z,6.22
2023-03-08T08:34:03.595Z,7.80
2023-03-08T08:39:25.930Z,7.75
2023-03-08T08:44:48.187Z,5.05
2023-03-08T08:50:12.948Z,7.92
2023-03-08T08:55:34.749Z,5.05
2023-03-08T09:00:57.808Z,7.33
2023-03-08T09:06:21.359Z,7.08
2023-03-08T09:11:54.230Z,6.15
2023-03-08T09:17:09.084Z,3.70
2023-03-08T09:22:31.558Z,4.90
2023-03-08T09:27:55.588Z,4.95
2023-03-08T09:33:18.465Z,4.05
2023-03-08T09:38:40.896Z,5.50
2023-03-08T09:44:46.098Z,10.20
2023-03-08T09:50:28.132Z,5.92
2023-03-08T09:56:01.245Z,5.35
2023-03-08T10:01:44.008Z,6.05
2023-03-08T10:07:30.089Z,8.58
2023-03-08T10:13:21.026Z,9.35
2023-03-08T10:18:56.637Z,5.05
2023-03-08T10:24:33.830Z,4.03
2023-03-08T10:29:58.501Z,6.55
2023-03-08T10:35:22.190Z,8.75
2023-03-08T10:40:44.551Z,7.22
2023-03-08T10:46:14.838Z,8.08
2023-03-08T10:51:42.280Z,4.53
2023-03-08T10:57:08.268Z,6.62
2023-03-08T11:02:36.119Z,4.97
2023-03-08T11:08:05.636Z,3.75
2023-03-08T11:13:48.212Z,5.23
2023-03-08T11:19:36.540Z,7.55
2023-03-08T11:25:26.066Z,3.85
2023-03-08T11:31:02.761Z,5.33
2023-03-08T11:36:38.054Z,4.55
2023-03-08T11:42:08.287Z,7.28
2023-03-08T11:48:16.395Z,5.03
2023-03-08T11:54:02.665Z,6.00
2023-03-08T11:59:58.682Z,12.20
2023-03-08T12:06:00.198Z,7.77
2023-03-08T12:11:27.872Z,8.55
2023-03-08T12:17:04.093Z,10.03
2023-03-08T12:23:00.729Z,10.90
2023-03-08T12:28:44.572Z,10.40
2023-03-08T12:34:07.634Z,9.20
2023-03-08T12:39:45.466Z,8.70
2023-03-08T12:45:15.490Z,12.07
2023-03-08T12:50:39.611Z,7.30
2023-03-08T12:56:18.130Z,6.97
2023-03-08T13:01:50.773Z,8.70
2023-03-08T13:07:50.913Z,8.00
2023-03-08T13:19:25.153Z,7.93
2023-03-08T13:25:10.875Z,11.90
2023-03-08T13:30:47.544Z,6.47
2023-03-08T13:36:29.060Z,9.13
2023-03-08T13:41:54.206Z,10.77
2023-03-08T13:47:33.188Z,10.63
2023-03-08T13:52:57.432Z,7.57
2023-03-08T13:58:34.969Z,5.97
2023-03-08T14:04:01.677Z,6.78
2023-03-08T14:09:24.110Z,7.70
2023-03-08T14:14:59.875Z,9.33
2023-03-08T14:20:31.582Z,5.83
2023-03-08T14:25:55.534Z,5.20
2023-03-08T14:31:34.605Z,9.03
2023-03-08T14:37:02.192Z,5.30
2023-03-08T14:42:53.070Z,5.70
2023-03-08T14:48:37.209Z,7.67
2023-03-08T14:54:15.734Z,3.90
2023-03-08T14:59:38.196Z,6.58
2023-03-08T15:05:01.946Z,8.25
2023-03-08T15:10:34.293Z,6.70
2023-03-08T15:15:57.186Z,6.80
2023-03-08T15:21:20.325Z,5.87
2023-03-08T15:26:45.061Z,5.67
2023-03-08T15:32:08.368Z,6.78
2023-03-08T15:37:32.438Z,9.63
2023-03-08T15:42:55.073Z,7.35
2023-03-08T15:48:22.543Z,7.60
2023-03-08T15:53:45.234Z,8.85
2023-03-08T15:59:08.756Z,10.88
2023-03-08T16:04:31.829Z,7.53
2023-03-08T16:09:54.365Z,11.12
2023-03-08T16:15:16.895Z,9.60
2023-03-08T16:20:39.574Z,17.02
2023-03-08T16:26:16.953Z,8.43
2023-03-08T16:31:40.395Z,8.90
2023-03-08T16:37:05.814Z,8.68
2023-03-08T16:42:35.752Z,8.08
2023-03-08T16:47:59.047Z,6.62
2023-03-08T16:53:21.627Z,8.30
2023-03-08T16:58:44.814Z,6.80
2023-03-08T17:04:09.024Z,8.28
2023-03-08T17:09:31.551Z,5.78
2023-03-08T17:14:55.011Z,6.33
2023-03-08T17:20:18.288Z,8.60
2023-03-08T17:25:41.333Z,8.70
2023-03-08T17:31:04.488Z,9.40
2023-03-08T17:36:28.573Z,43.20
2023-03-08T17:41:51.689Z,19.27
2023-03-08T17:47:14.220Z,13.27
2023-03-08T17:52:36.426Z,14.43
2023-03-08T17:57:58.829Z,16.97
2023-03-08T18:03:22.101Z,18.43
2023-03-08T18:08:45.586Z,16.77
2023-03-08T18:14:08.354Z,12.80
2023-03-08T18:19:32.345Z,16.35
2023-03-08T18:24:55.149Z,21.82
2023-03-08T18:30:18.114Z,17.80
2023-03-08T18:35:40.823Z,17.30
2023-03-08T18:41:03.120Z,23.93
2023-03-08T18:46:27.682Z,21.40
2023-03-08T18:51:52.464Z,20.53
2023-03-08T18:57:15.009Z,21.25
2023-03-08T19:02:37.293Z,23.50
2023-03-08T19:07:59.694Z,19.23
2023-03-08T19:13:21.873Z,77.97
2023-03-08T19:18:44.319Z,40.73
2023-03-08T19:24:07.506Z,24.80
2023-03-08T19:29:34.341Z,21.53
2023-03-08T19:34:58.054Z,21.30
2023-03-08T19:40:21.339Z,21.47
2023-03-08T19:45:43.932Z,22.03
2023-03-08T19:51:06.217Z,25.62
2023-03-08T19:56:33.369Z,26.87
2023-03-08T20:01:56.614Z,31.20
2023-03-08T20:07:19.719Z,27.50
2023-03-08T20:12:41.916Z,28.23
2023-03-08T20:18:04.225Z,27.87
2023-03-08T20:23:27.124Z,26.75
2023-03-08T20:28:49.453Z,31.13
2023-03-08T20:34:12.014Z,32.05
2023-03-08T20:39:34.316Z,79.27
2023-03-08T20:44:56.580Z,35.30
2023-03-08T20:50:19.112Z,35.88
2023-03-08T20:55:43.488Z,32.37
2023-03-08T21:01:05.748Z,32.03
2023-03-08T21:06:35.848Z,35.15
2023-03-08T21:11:59.168Z,31.50
2023-03-08T21:17:23.114Z,31.43
2023-03-08T21:22:45.356Z,36.07
2023-03-08T21:28:07.711Z,32.73
2023-03-08T21:33:31.695Z,31.85
2023-03-08T21:39:00.556Z,124.67
2023-03-08T21:44:27.509Z,41.50
2023-03-08T21:49:50.221Z,49.67
2023-03-08T21:55:12.837Z,43.03
2023-03-08T22:00:35.347Z,41.77
2023-03-08T22:05:57.603Z,51.00
2023-03-08T22:11:19.982Z,42.88
2023-03-08T22:16:44.236Z,40.43
2023-03-08T22:22:06.782Z,39.23
2023-03-08T22:27:31.602Z,37.88
2023-03-08T22:32:53.767Z,32.53
2023-03-08T22:38:17.610Z,33.57
2023-03-08T22:43:40.462Z,36.13
2023-03-08T22:49:07.233Z,38.58
2023-03-08T22:54:32.945Z,39.63
2023-03-08T22:59:55.125Z,40.43
2023-03-08T23:05:24.206Z,42.03
2023-03-08T23:10:46.993Z,41.40
2023-03-08T23:16:26.732Z,47.60
2023-03-08T23:22:05.828Z,56.75
2023-03-08T23:27:28.368Z,70.00
2023-03-08T23:33:06.777Z,69.32
2023-03-08T23:38:29.549Z,77.27
2023-03-08T23:43:53.722Z,73.35
2023-03-08T23:49:17.552Z,70.40
2023-03-08T23:54:39.837Z,68.00
